Terminal Aerodrome Forecast
Issued by NWS Wilmington, NC

Home | Current Version | Previous Version | Text Only | Print | Product List | Glossary On
Versions: 1 2 3 4 5 6 7 8 9 10 11 12 13 14 15 16 17 18 19 20 21 22
000
FTUS42 KILM 192103 AAB
TAFILM
TAF AMD
KILM 192103Z 1921/2018 10008KT P6SM SCT008 BKN040
     FM192200 16010KT 6SM -SHRA BKN018
      TEMPO 2003/2005 2SM +SHRA BKN010
     FM200500 18012KT 5SM BR VCSH BKN008
     FM201300 23010G15KT P6SM BKN015=

USA.gov is the U.S. government's official web portal to all federal, state and local government web resources and services.